LFSG/EPL METAR and TAF weather

Enter ICAO airport designator
Station Type Date Time Source
LFSG METAR 2021/05/12 04:00 UTC NOAA

LFSG 120400Z AUTO 18005KT CAVOK 06/05 Q1014


Station Type Date Time Source
LFSG Decoded METAR 2021/05/12 04:00 UTC NOAA

Station name not available
May 12, 2021 - 12:00 AM EDT / 2021.05.12 0400 UTC
Wind: from the S (180 degrees) at 6 MPH (5 KT):0
Visibility: greater than 7 mile(s):0
Temperature: 42 F (6 C)
Dew Point: 41 F (5 C)
Relative Humidity: 93%
Pressure (altimeter): 29.94 in. Hg (1014 hPa)
ob: LFSG 120400Z AUTO 18005KT CAVOK 06/05 Q1014
cycle: 4

Station Type Date Time Source
LFSG TAF UTC NOAA

Error!

Example: see airport list